sensor_id;sensor_type;location;lat;lon;timestamp;P1;durP1;ratioP1;P2;durP2;ratioP2
17310;SDS011;8773;43.300;0.394;2023-07-29T00:02:06;6.40;;;5.90;;
17310;SDS011;8773;43.300;0.394;2023-07-29T00:04:34;6.05;;;5.65;;
17310;SDS011;8773;43.300;0.394;2023-07-29T00:07:01;6.30;;;5.80;;
17310;SDS011;8773;43.300;0.394;2023-07-29T00:09:29;6.78;;;6.20;;
17310;SDS011;8773;43.300;0.394;2023-07-29T00:11:58;6.63;;;6.13;;
17310;SDS011;8773;43.300;0.394;2023-07-29T00:14:26;6.97;;;6.38;;
17310;SDS011;8773;43.300;0.394;2023-07-29T00:16:53;6.53;;;6.03;;
17310;SDS011;8773;43.300;0.394;2023-07-29T00:19:21;6.40;;;5.88;;
17310;SDS011;8773;43.300;0.394;2023-07-29T00:21:49;6.88;;;6.28;;
17310;SDS011;8773;43.300;0.394;2023-07-29T00:24:16;7.43;;;6.53;;
17310;SDS011;8773;43.300;0.394;2023-07-29T00:26:44;6.43;;;5.88;;
17310;SDS011;8773;43.300;0.394;2023-07-29T00:29:13;6.90;;;6.40;;
17310;SDS011;8773;43.300;0.394;2023-07-29T00:31:40;7.13;;;6.47;;
17310;SDS011;8773;43.300;0.394;2023-07-29T00:34:08;6.85;;;6.22;;
17310;SDS011;8773;43.300;0.394;2023-07-29T00:36:35;6.47;;;5.93;;
17310;SDS011;8773;43.300;0.394;2023-07-29T00:39:03;6.90;;;6.32;;
17310;SDS011;8773;43.300;0.394;2023-07-29T00:41:31;6.28;;;5.68;;
17310;SDS011;8773;43.300;0.394;2023-07-29T00:43:58;6.53;;;6.03;;
17310;SDS011;8773;43.300;0.394;2023-07-29T00:46:27;6.35;;;5.95;;
17310;SDS011;8773;43.300;0.394;2023-07-29T00:48:55;7.07;;;6.47;;
17310;SDS011;8773;43.300;0.394;2023-07-29T00:51:23;6.40;;;5.90;;
17310;SDS011;8773;43.300;0.394;2023-07-29T00:53:50;6.00;;;5.57;;
17310;SDS011;8773;43.300;0.394;2023-07-29T00:56:18;7.57;;;6.78;;
17310;SDS011;8773;43.300;0.394;2023-07-29T00:58:45;6.68;;;6.22;;
17310;SDS011;8773;43.300;0.394;2023-07-29T01:01:13;6.60;;;6.10;;
17310;SDS011;8773;43.300;0.394;2023-07-29T01:03:42;7.10;;;6.43;;
17310;SDS011;8773;43.300;0.394;2023-07-29T01:06:12;7.85;;;7.05;;
17310;SDS011;8773;43.300;0.394;2023-07-29T01:08:51;7.20;;;6.53;;
17310;SDS011;8773;43.300;0.394;2023-07-29T01:11:27;6.60;;;6.10;;
17310;SDS011;8773;43.300;0.394;2023-07-29T01:14:04;6.72;;;6.15;;
17310;SDS011;8773;43.300;0.394;2023-07-29T01:16:39;6.97;;;6.32;;
17310;SDS011;8773;43.300;0.394;2023-07-29T01:19:17;7.47;;;6.72;;
17310;SDS011;8773;43.300;0.394;2023-07-29T01:22:01;7.15;;;6.45;;
17310;SDS011;8773;43.300;0.394;2023-07-29T01:24:32;7.22;;;6.38;;
17310;SDS011;8773;43.300;0.394;2023-07-29T01:27:00;7.55;;;6.85;;
17310;SDS011;8773;43.300;0.394;2023-07-29T01:29:27;6.28;;;5.78;;
17310;SDS011;8773;43.300;0.394;2023-07-29T01:31:55;6.15;;;5.65;;
17310;SDS011;8773;43.300;0.394;2023-07-29T01:34:29;6.57;;;6.13;;
17310;SDS011;8773;43.300;0.394;2023-07-29T01:37:06;6.43;;;5.93;;
17310;SDS011;8773;43.300;0.394;2023-07-29T01:39:41;7.15;;;5.97;;
17310;SDS011;8773;43.300;0.394;2023-07-29T01:42:12;7.18;;;6.50;;
17310;SDS011;8773;43.300;0.394;2023-07-29T01:44:39;6.75;;;6.15;;
17310;SDS011;8773;43.300;0.394;2023-07-29T01:47:07;6.80;;;6.28;;
17310;SDS011;8773;43.300;0.394;2023-07-29T01:49:34;6.55;;;6.10;;
17310;SDS011;8773;43.300;0.394;2023-07-29T01:52:02;6.45;;;5.97;;
17310;SDS011;8773;43.300;0.394;2023-07-29T01:54:30;6.47;;;5.95;;
17310;SDS011;8773;43.300;0.394;2023-07-29T01:56:59;6.10;;;5.60;;
17310;SDS011;8773;43.300;0.394;2023-07-29T01:59:27;6.70;;;5.85;;
17310;SDS011;8773;43.300;0.394;2023-07-29T02:01:54;6.10;;;5.70;;
17310;SDS011;8773;43.300;0.394;2023-07-29T02:04:21;6.40;;;6.00;;
17310;SDS011;8773;43.300;0.394;2023-07-29T02:06:49;6.35;;;5.93;;
17310;SDS011;8773;43.300;0.394;2023-07-29T02:09:17;6.05;;;5.57;;
17310;SDS011;8773;43.300;0.394;2023-07-29T02:11:44;6.60;;;6.05;;
17310;SDS011;8773;43.300;0.394;2023-07-29T02:14:13;6.65;;;6.05;;
17310;SDS011;8773;43.300;0.394;2023-07-29T02:16:40;6.78;;;5.97;;
17310;SDS011;8773;43.300;0.394;2023-07-29T02:19:08;6.57;;;6.03;;
17310;SDS011;8773;43.300;0.394;2023-07-29T02:21:35;6.60;;;6.00;;
17310;SDS011;8773;43.300;0.394;2023-07-29T02:24:03;6.68;;;6.07;;
17310;SDS011;8773;43.300;0.394;2023-07-29T02:26:31;6.38;;;5.97;;
17310;SDS011;8773;43.300;0.394;2023-07-29T02:28:59;6.28;;;5.70;;
17310;SDS011;8773;43.300;0.394;2023-07-29T02:31:28;6.40;;;5.72;;
17310;SDS011;8773;43.300;0.394;2023-07-29T02:33:55;5.70;;;5.28;;
17310;SDS011;8773;43.300;0.394;2023-07-29T02:36:23;6.95;;;6.10;;
17310;SDS011;8773;43.300;0.394;2023-07-29T02:38:50;6.35;;;5.82;;
17310;SDS011;8773;43.300;0.394;2023-07-29T02:41:18;6.53;;;6.13;;
17310;SDS011;8773;43.300;0.394;2023-07-29T02:43:48;7.78;;;5.82;;
17310;SDS011;8773;43.300;0.394;2023-07-29T02:46:16;6.53;;;5.95;;
17310;SDS011;8773;43.300;0.394;2023-07-29T02:48:45;7.00;;;6.50;;
17310;SDS011;8773;43.300;0.394;2023-07-29T02:51:13;6.95;;;6.35;;
17310;SDS011;8773;43.300;0.394;2023-07-29T02:53:40;6.50;;;5.93;;
17310;SDS011;8773;43.300;0.394;2023-07-29T02:56:08;6.50;;;5.97;;
17310;SDS011;8773;43.300;0.394;2023-07-29T02:58:36;6.70;;;6.20;;
17310;SDS011;8773;43.300;0.394;2023-07-29T03:01:04;6.38;;;5.88;;
17310;SDS011;8773;43.300;0.394;2023-07-29T03:03:33;7.13;;;6.55;;
17310;SDS011;8773;43.300;0.394;2023-07-29T03:06:03;6.93;;;6.05;;
17310;SDS011;8773;43.300;0.394;2023-07-29T03:08:31;6.63;;;6.00;;
17310;SDS011;8773;43.300;0.394;2023-07-29T03:11:04;7.82;;;7.03;;
17310;SDS011;8773;43.300;0.394;2023-07-29T03:13:32;7.90;;;6.80;;
17310;SDS011;8773;43.300;0.394;2023-07-29T03:16:04;7.18;;;6.60;;
17310;SDS011;8773;43.300;0.394;2023-07-29T03:18:32;6.97;;;6.35;;
17310;SDS011;8773;43.300;0.394;2023-07-29T03:21:00;7.15;;;6.50;;
17310;SDS011;8773;43.300;0.394;2023-07-29T03:23:30;6.50;;;6.00;;
17310;SDS011;8773;43.300;0.394;2023-07-29T03:25:59;6.32;;;5.75;;
17310;SDS011;8773;43.300;0.394;2023-07-29T03:28:27;7.05;;;6.45;;
17310;SDS011;8773;43.300;0.394;2023-07-29T03:30:56;6.40;;;5.80;;
17310;SDS011;8773;43.300;0.394;2023-07-29T03:33:24;6.65;;;6.05;;
17310;SDS011;8773;43.300;0.394;2023-07-29T03:35:52;5.97;;;5.53;;
17310;SDS011;8773;43.300;0.394;2023-07-29T03:38:21;6.65;;;6.15;;
17310;SDS011;8773;43.300;0.394;2023-07-29T03:40:50;6.43;;;5.80;;
17310;SDS011;8773;43.300;0.394;2023-07-29T03:43:18;6.53;;;5.75;;
17310;SDS011;8773;43.300;0.394;2023-07-29T03:45:46;6.10;;;5.70;;
17310;SDS011;8773;43.300;0.394;2023-07-29T03:48:13;6.75;;;6.15;;
17310;SDS011;8773;43.300;0.394;2023-07-29T03:50:41;7.25;;;6.65;;
17310;SDS011;8773;43.300;0.394;2023-07-29T03:53:08;6.53;;;5.93;;
17310;SDS011;8773;43.300;0.394;2023-07-29T03:55:37;6.88;;;6.28;;
17310;SDS011;8773;43.300;0.394;2023-07-29T03:58:05;7.38;;;5.72;;
17310;SDS011;8773;43.300;0.394;2023-07-29T04:00:32;6.18;;;5.75;;
17310;SDS011;8773;43.300;0.394;2023-07-29T04:03:00;6.15;;;5.82;;
17310;SDS011;8773;43.300;0.394;2023-07-29T04:05:28;6.47;;;6.03;;
17310;SDS011;8773;43.300;0.394;2023-07-29T04:07:55;6.15;;;5.65;;
17310;SDS011;8773;43.300;0.394;2023-07-29T04:10:23;6.78;;;5.85;;
17310;SDS011;8773;43.300;0.394;2023-07-29T04:12:52;6.72;;;6.13;;
17310;SDS011;8773;43.300;0.394;2023-07-29T04:15:19;6.95;;;6.28;;
17310;SDS011;8773;43.300;0.394;2023-07-29T04:17:47;6.38;;;5.65;;
17310;SDS011;8773;43.300;0.394;2023-07-29T04:20:14;7.43;;;6.72;;
17310;SDS011;8773;43.300;0.394;2023-07-29T04:22:42;7.15;;;6.57;;
17310;SDS011;8773;43.300;0.394;2023-07-29T04:25:10;6.63;;;6.03;;
17310;SDS011;8773;43.300;0.394;2023-07-29T04:27:37;6.93;;;6.22;;
17310;SDS011;8773;43.300;0.394;2023-07-29T04:30:07;6.57;;;6.05;;
17310;SDS011;8773;43.300;0.394;2023-07-29T04:32:35;6.53;;;6.00;;
17310;SDS011;8773;43.300;0.394;2023-07-29T04:35:03;7.05;;;6.45;;
17310;SDS011;8773;43.300;0.394;2023-07-29T04:37:31;6.00;;;5.32;;
17310;SDS011;8773;43.300;0.394;2023-07-29T04:39:59;5.75;;;5.35;;
17310;SDS011;8773;43.300;0.394;2023-07-29T04:42:26;5.68;;;5.32;;
17310;SDS011;8773;43.300;0.394;2023-07-29T04:44:54;7.45;;;6.85;;
17310;SDS011;8773;43.300;0.394;2023-07-29T04:47:23;7.45;;;6.57;;
17310;SDS011;8773;43.300;0.394;2023-07-29T04:49:52;6.97;;;6.20;;
17310;SDS011;8773;43.300;0.394;2023-07-29T04:52:19;6.15;;;5.57;;
17310;SDS011;8773;43.300;0.394;2023-07-29T04:54:47;8.30;;;7.15;;
17310;SDS011;8773;43.300;0.394;2023-07-29T04:57:15;7.35;;;6.22;;
17310;SDS011;8773;43.300;0.394;2023-07-29T04:59:42;6.38;;;5.88;;
17310;SDS011;8773;43.300;0.394;2023-07-29T05:02:10;6.18;;;5.75;;
17310;SDS011;8773;43.300;0.394;2023-07-29T05:04:39;6.72;;;6.20;;
17310;SDS011;8773;43.300;0.394;2023-07-29T05:07:06;6.18;;;5.72;;
17310;SDS011;8773;43.300;0.394;2023-07-29T05:09:34;6.55;;;5.90;;
17310;SDS011;8773;43.300;0.394;2023-07-29T05:12:02;6.35;;;5.72;;
17310;SDS011;8773;43.300;0.394;2023-07-29T05:14:30;6.13;;;5.57;;
17310;SDS011;8773;43.300;0.394;2023-07-29T05:16:57;5.70;;;5.20;;
17310;SDS011;8773;43.300;0.394;2023-07-29T05:19:25;6.75;;;6.15;;
17310;SDS011;8773;43.300;0.394;2023-07-29T05:21:54;6.07;;;5.47;;
17310;SDS011;8773;43.300;0.394;2023-07-29T05:24:23;5.95;;;5.45;;
17310;SDS011;8773;43.300;0.394;2023-07-29T05:26:50;6.03;;;5.47;;
17310;SDS011;8773;43.300;0.394;2023-07-29T05:29:18;6.10;;;5.60;;
17310;SDS011;8773;43.300;0.394;2023-07-29T05:31:46;5.75;;;5.25;;
17310;SDS011;8773;43.300;0.394;2023-07-29T05:34:13;6.00;;;5.60;;
17310;SDS011;8773;43.300;0.394;2023-07-29T05:36:40;6.03;;;5.60;;
17310;SDS011;8773;43.300;0.394;2023-07-29T05:39:09;5.65;;;5.20;;
17310;SDS011;8773;43.300;0.394;2023-07-29T05:41:37;7.25;;;5.68;;
17310;SDS011;8773;43.300;0.394;2023-07-29T05:44:04;6.03;;;5.50;;
17310;SDS011;8773;43.300;0.394;2023-07-29T05:46:34;5.78;;;5.28;;
17310;SDS011;8773;43.300;0.394;2023-07-29T05:49:02;5.63;;;5.20;;
17310;SDS011;8773;43.300;0.394;2023-07-29T05:51:29;6.10;;;5.10;;
17310;SDS011;8773;43.300;0.394;2023-07-29T05:53:57;5.10;;;4.80;;
17310;SDS011;8773;43.300;0.394;2023-07-29T05:56:26;5.57;;;5.10;;
17310;SDS011;8773;43.300;0.394;2023-07-29T05:58:53;5.20;;;4.75;;
17310;SDS011;8773;43.300;0.394;2023-07-29T06:01:21;4.85;;;4.63;;
17310;SDS011;8773;43.300;0.394;2023-07-29T06:03:48;5.68;;;5.10;;
17310;SDS011;8773;43.300;0.394;2023-07-29T06:06:16;4.95;;;4.55;;
17310;SDS011;8773;43.300;0.394;2023-07-29T06:08:44;5.07;;;4.55;;
17310;SDS011;8773;43.300;0.394;2023-07-29T06:11:11;6.05;;;4.22;;
17310;SDS011;8773;43.300;0.394;2023-07-29T06:13:40;5.30;;;4.80;;
17310;SDS011;8773;43.300;0.394;2023-07-29T06:16:08;6.32;;;4.65;;
17310;SDS011;8773;43.300;0.394;2023-07-29T06:18:35;5.15;;;4.75;;
17310;SDS011;8773;43.300;0.394;2023-07-29T06:21:03;4.57;;;4.20;;
17310;SDS011;8773;43.300;0.394;2023-07-29T06:23:30;4.93;;;4.50;;
17310;SDS011;8773;43.300;0.394;2023-07-29T06:25:58;5.68;;;4.47;;
17310;SDS011;8773;43.300;0.394;2023-07-29T06:28:26;4.85;;;4.45;;
17310;SDS011;8773;43.300;0.394;2023-07-29T06:30:55;4.32;;;4.03;;
17310;SDS011;8773;43.300;0.394;2023-07-29T06:33:22;4.35;;;4.05;;
17310;SDS011;8773;43.300;0.394;2023-07-29T06:35:50;4.18;;;3.88;;
17310;SDS011;8773;43.300;0.394;2023-07-29T06:38:17;4.57;;;4.32;;
17310;SDS011;8773;43.300;0.394;2023-07-29T06:40:45;4.45;;;4.05;;
17310;SDS011;8773;43.300;0.394;2023-07-29T06:43:13;4.43;;;4.13;;
17310;SDS011;8773;43.300;0.394;2023-07-29T06:45:40;4.22;;;3.92;;
17310;SDS011;8773;43.300;0.394;2023-07-29T06:48:09;4.40;;;4.00;;
17310;SDS011;8773;43.300;0.394;2023-07-29T06:50:37;4.00;;;3.80;;
17310;SDS011;8773;43.300;0.394;2023-07-29T06:53:04;3.90;;;3.70;;
17310;SDS011;8773;43.300;0.394;2023-07-29T06:55:32;4.40;;;4.10;;
17310;SDS011;8773;43.300;0.394;2023-07-29T06:58:00;3.88;;;3.60;;
17310;SDS011;8773;43.300;0.394;2023-07-29T07:00:27;3.92;;;3.72;;
17310;SDS011;8773;43.300;0.394;2023-07-29T07:02:55;4.50;;;4.20;;
17310;SDS011;8773;43.300;0.394;2023-07-29T07:05:24;4.15;;;3.85;;
17310;SDS011;8773;43.300;0.394;2023-07-29T07:07:51;4.40;;;4.00;;
17310;SDS011;8773;43.300;0.394;2023-07-29T07:10:19;3.88;;;3.58;;
17310;SDS011;8773;43.300;0.394;2023-07-29T07:12:47;3.70;;;3.40;;
17310;SDS011;8773;43.300;0.394;2023-07-29T07:15:14;4.45;;;4.10;;
17310;SDS011;8773;43.300;0.394;2023-07-29T07:17:42;4.07;;;3.80;;
17310;SDS011;8773;43.300;0.394;2023-07-29T07:20:10;3.70;;;3.40;;
17310;SDS011;8773;43.300;0.394;2023-07-29T07:22:39;3.97;;;3.70;;
17310;SDS011;8773;43.300;0.394;2023-07-29T07:25:07;3.90;;;3.70;;
17310;SDS011;8773;43.300;0.394;2023-07-29T07:27:35;3.72;;;3.58;;
17310;SDS011;8773;43.300;0.394;2023-07-29T07:30:03;4.13;;;3.72;;
17310;SDS011;8773;43.300;0.394;2023-07-29T07:32:32;4.13;;;3.88;;
17310;SDS011;8773;43.300;0.394;2023-07-29T07:34:59;4.10;;;3.90;;
17310;SDS011;8773;43.300;0.394;2023-07-29T07:37:27;4.75;;;3.83;;
17310;SDS011;8773;43.300;0.394;2023-07-29T07:39:56;3.92;;;3.72;;
17310;SDS011;8773;43.300;0.394;2023-07-29T07:42:23;4.07;;;3.78;;
17310;SDS011;8773;43.300;0.394;2023-07-29T07:44:51;4.68;;;4.38;;
17310;SDS011;8773;43.300;0.394;2023-07-29T07:47:18;4.35;;;4.15;;
17310;SDS011;8773;43.300;0.394;2023-07-29T07:49:46;4.65;;;4.30;;
17310;SDS011;8773;43.300;0.394;2023-07-29T07:52:13;4.50;;;4.30;;
17310;SDS011;8773;43.300;0.394;2023-07-29T07:54:41;4.53;;;4.22;;
17310;SDS011;8773;43.300;0.394;2023-07-29T07:57:10;4.72;;;4.43;;
17310;SDS011;8773;43.300;0.394;2023-07-29T07:59:37;4.50;;;4.30;;
17310;SDS011;8773;43.300;0.394;2023-07-29T08:02:05;4.53;;;4.30;;
17310;SDS011;8773;43.300;0.394;2023-07-29T08:04:32;4.82;;;4.43;;
17310;SDS011;8773;43.300;0.394;2023-07-29T08:07:00;4.80;;;4.40;;
17310;SDS011;8773;43.300;0.394;2023-07-29T08:09:27;4.10;;;3.90;;
17310;SDS011;8773;43.300;0.394;2023-07-29T08:11:55;4.65;;;4.32;;
17310;SDS011;8773;43.300;0.394;2023-07-29T08:14:24;4.85;;;4.55;;
17310;SDS011;8773;43.300;0.394;2023-07-29T08:16:51;4.47;;;4.18;;
17310;SDS011;8773;43.300;0.394;2023-07-29T08:19:19;4.93;;;4.63;;
17310;SDS011;8773;43.300;0.394;2023-07-29T08:21:48;5.30;;;4.90;;
17310;SDS011;8773;43.300;0.394;2023-07-29T08:24:16;4.63;;;4.30;;
17310;SDS011;8773;43.300;0.394;2023-07-29T08:26:43;5.13;;;4.72;;
17310;SDS011;8773;43.300;0.394;2023-07-29T08:29:11;4.55;;;4.18;;
17310;SDS011;8773;43.300;0.394;2023-07-29T08:31:40;5.10;;;4.80;;
17310;SDS011;8773;43.300;0.394;2023-07-29T08:34:07;4.97;;;4.60;;
17310;SDS011;8773;43.300;0.394;2023-07-29T08:36:35;5.28;;;4.88;;
17310;SDS011;8773;43.300;0.394;2023-07-29T08:39:03;5.20;;;4.90;;
17310;SDS011;8773;43.300;0.394;2023-07-29T08:41:31;5.00;;;4.70;;
17310;SDS011;8773;43.300;0.394;2023-07-29T08:44:06;4.97;;;4.68;;
17310;SDS011;8773;43.300;0.394;2023-07-29T08:46:40;5.10;;;4.80;;
17310;SDS011;8773;43.300;0.394;2023-07-29T08:49:08;5.22;;;4.93;;
17310;SDS011;8773;43.300;0.394;2023-07-29T08:51:38;5.20;;;4.90;;
17310;SDS011;8773;43.300;0.394;2023-07-29T08:54:08;5.40;;;5.10;;
17310;SDS011;8773;43.300;0.394;2023-07-29T08:56:37;5.57;;;5.18;;
17310;SDS011;8773;43.300;0.394;2023-07-29T08:59:05;5.47;;;5.07;;
17310;SDS011;8773;43.300;0.394;2023-07-29T09:01:34;5.78;;;5.38;;
17310;SDS011;8773;43.300;0.394;2023-07-29T09:04:03;5.63;;;5.32;;
17310;SDS011;8773;43.300;0.394;2023-07-29T09:06:31;5.68;;;5.28;;
17310;SDS011;8773;43.300;0.394;2023-07-29T09:08:59;5.82;;;5.32;;
17310;SDS011;8773;43.300;0.394;2023-07-29T09:11:28;6.38;;;5.93;;
17310;SDS011;8773;43.300;0.394;2023-07-29T09:13:56;5.60;;;5.20;;
17310;SDS011;8773;43.300;0.394;2023-07-29T09:16:23;5.55;;;5.25;;
17310;SDS011;8773;43.300;0.394;2023-07-29T09:18:51;5.70;;;5.30;;
17310;SDS011;8773;43.300;0.394;2023-07-29T09:21:23;5.45;;;5.10;;
17310;SDS011;8773;43.300;0.394;2023-07-29T09:23:51;5.78;;;5.38;;
17310;SDS011;8773;43.300;0.394;2023-07-29T09:26:22;5.60;;;5.20;;
17310;SDS011;8773;43.300;0.394;2023-07-29T09:28:51;5.78;;;5.30;;
17310;SDS011;8773;43.300;0.394;2023-07-29T09:31:20;6.05;;;5.55;;
17310;SDS011;8773;43.300;0.394;2023-07-29T09:33:48;5.90;;;5.50;;
17310;SDS011;8773;43.300;0.394;2023-07-29T09:36:15;5.90;;;5.50;;
17310;SDS011;8773;43.300;0.394;2023-07-29T09:38:45;5.65;;;5.35;;
17310;SDS011;8773;43.300;0.394;2023-07-29T09:41:12;5.55;;;5.15;;
17310;SDS011;8773;43.300;0.394;2023-07-29T09:43:42;5.43;;;5.13;;
17310;SDS011;8773;43.300;0.394;2023-07-29T09:46:10;5.45;;;4.95;;
17310;SDS011;8773;43.300;0.394;2023-07-29T09:48:38;5.30;;;5.00;;
17310;SDS011;8773;43.300;0.394;2023-07-29T09:51:12;5.07;;;4.72;;
17310;SDS011;8773;43.300;0.394;2023-07-29T09:53:40;5.45;;;5.05;;
17310;SDS011;8773;43.300;0.394;2023-07-29T09:56:13;6.07;;;5.68;;
17310;SDS011;8773;43.300;0.394;2023-07-29T09:58:42;5.70;;;5.30;;
17310;SDS011;8773;43.300;0.394;2023-07-29T10:01:10;5.20;;;4.90;;
17310;SDS011;8773;43.300;0.394;2023-07-29T10:03:38;5.55;;;5.15;;
17310;SDS011;8773;43.300;0.394;2023-07-29T10:06:06;5.40;;;5.10;;
17310;SDS011;8773;43.300;0.394;2023-07-29T10:08:34;5.30;;;4.97;;
17310;SDS011;8773;43.300;0.394;2023-07-29T10:11:02;5.85;;;5.45;;
17310;SDS011;8773;43.300;0.394;2023-07-29T10:13:31;6.40;;;5.90;;
17310;SDS011;8773;43.300;0.394;2023-07-29T10:15:59;5.72;;;5.43;;
17310;SDS011;8773;43.300;0.394;2023-07-29T10:18:27;6.43;;;6.03;;
17310;SDS011;8773;43.300;0.394;2023-07-29T10:20:56;6.32;;;5.82;;
17310;SDS011;8773;43.300;0.394;2023-07-29T10:23:25;5.60;;;5.30;;
17310;SDS011;8773;43.300;0.394;2023-07-29T10:25:55;5.07;;;4.78;;
17310;SDS011;8773;43.300;0.394;2023-07-29T10:28:29;5.60;;;5.15;;
17310;SDS011;8773;43.300;0.394;2023-07-29T10:30:59;5.95;;;5.55;;
17310;SDS011;8773;43.300;0.394;2023-07-29T10:33:26;6.35;;;5.85;;
17310;SDS011;8773;43.300;0.394;2023-07-29T10:35:54;5.60;;;5.20;;
17310;SDS011;8773;43.300;0.394;2023-07-29T10:38:22;5.47;;;5.18;;
17310;SDS011;8773;43.300;0.394;2023-07-29T10:40:51;6.15;;;5.75;;
17310;SDS011;8773;43.300;0.394;2023-07-29T10:43:24;6.70;;;6.20;;
17310;SDS011;8773;43.300;0.394;2023-07-29T10:45:55;5.72;;;5.32;;
17310;SDS011;8773;43.300;0.394;2023-07-29T10:48:40;6.35;;;5.70;;
17310;SDS011;8773;43.300;0.394;2023-07-29T10:51:27;6.13;;;5.60;;
17310;SDS011;8773;43.300;0.394;2023-07-29T10:53:56;6.18;;;5.68;;
17310;SDS011;8773;43.300;0.394;2023-07-29T10:56:28;5.70;;;5.40;;
17310;SDS011;8773;43.300;0.394;2023-07-29T10:58:58;6.25;;;5.72;;
17310;SDS011;8773;43.300;0.394;2023-07-29T11:01:31;5.47;;;5.05;;
17310;SDS011;8773;43.300;0.394;2023-07-29T11:09:53;5.88;;;5.47;;
17310;SDS011;8773;43.300;0.394;2023-07-29T11:12:42;6.22;;;5.78;;
17310;SDS011;8773;43.300;0.394;2023-07-29T11:15:12;6.75;;;6.20;;
17310;SDS011;8773;43.300;0.394;2023-07-29T11:17:45;6.10;;;5.65;;
17310;SDS011;8773;43.300;0.394;2023-07-29T11:20:15;6.30;;;5.80;;
17310;SDS011;8773;43.300;0.394;2023-07-29T11:22:44;6.32;;;5.93;;
17310;SDS011;8773;43.300;0.394;2023-07-29T11:25:12;6.50;;;6.03;;
17310;SDS011;8773;43.300;0.394;2023-07-29T11:27:40;6.18;;;5.78;;
17310;SDS011;8773;43.300;0.394;2023-07-29T11:30:09;5.90;;;5.50;;
17310;SDS011;8773;43.300;0.394;2023-07-29T11:32:38;5.78;;;5.47;;
17310;SDS011;8773;43.300;0.394;2023-07-29T11:35:08;5.78;;;5.38;;
17310;SDS011;8773;43.300;0.394;2023-07-29T11:37:37;5.95;;;5.55;;
17310;SDS011;8773;43.300;0.394;2023-07-29T11:40:06;5.95;;;5.55;;
17310;SDS011;8773;43.300;0.394;2023-07-29T11:42:35;6.93;;;6.40;;
17310;SDS011;8773;43.300;0.394;2023-07-29T11:45:03;5.75;;;5.35;;
17310;SDS011;8773;43.300;0.394;2023-07-29T11:47:32;5.82;;;5.43;;
17310;SDS011;8773;43.300;0.394;2023-07-29T11:50:00;6.28;;;5.78;;
17310;SDS011;8773;43.300;0.394;2023-07-29T11:52:29;6.43;;;5.93;;
17310;SDS011;8773;43.300;0.394;2023-07-29T11:55:00;6.15;;;5.75;;
17310;SDS011;8773;43.300;0.394;2023-07-29T11:57:28;5.78;;;5.40;;
17310;SDS011;8773;43.300;0.394;2023-07-29T11:59:55;5.95;;;5.55;;
17310;SDS011;8773;43.300;0.394;2023-07-29T12:02:24;6.05;;;5.72;;
17310;SDS011;8773;43.300;0.394;2023-07-29T12:04:52;6.05;;;5.70;;
17310;SDS011;8773;43.300;0.394;2023-07-29T12:07:20;6.10;;;5.70;;
17310;SDS011;8773;43.300;0.394;2023-07-29T12:09:50;6.35;;;5.93;;
17310;SDS011;8773;43.300;0.394;2023-07-29T12:12:17;6.07;;;5.78;;
17310;SDS011;8773;43.300;0.394;2023-07-29T12:14:45;6.22;;;5.72;;
17310;SDS011;8773;43.300;0.394;2023-07-29T12:17:12;5.80;;;5.40;;
17310;SDS011;8773;43.300;0.394;2023-07-29T12:19:41;5.22;;;4.93;;
17310;SDS011;8773;43.300;0.394;2023-07-29T12:22:10;5.90;;;5.60;;
17310;SDS011;8773;43.300;0.394;2023-07-29T12:24:38;5.70;;;5.30;;
17310;SDS011;8773;43.300;0.394;2023-07-29T12:27:11;5.80;;;5.28;;
17310;SDS011;8773;43.300;0.394;2023-07-29T12:29:40;6.32;;;5.82;;
17310;SDS011;8773;43.300;0.394;2023-07-29T12:32:08;5.97;;;5.57;;
17310;SDS011;8773;43.300;0.394;2023-07-29T12:34:37;5.82;;;5.45;;
17310;SDS011;8773;43.300;0.394;2023-07-29T12:37:06;5.47;;;5.18;;
17310;SDS011;8773;43.300;0.394;2023-07-29T12:39:34;5.40;;;5.10;;
17310;SDS011;8773;43.300;0.394;2023-07-29T12:42:07;5.35;;;5.05;;
17310;SDS011;8773;43.300;0.394;2023-07-29T12:44:36;5.13;;;4.93;;
17310;SDS011;8773;43.300;0.394;2023-07-29T12:47:05;5.60;;;5.22;;
17310;SDS011;8773;43.300;0.394;2023-07-29T12:49:34;4.85;;;4.57;;
17310;SDS011;8773;43.300;0.394;2023-07-29T12:52:01;5.60;;;5.30;;
17310;SDS011;8773;43.300;0.394;2023-07-29T12:54:29;5.20;;;4.82;;
17310;SDS011;8773;43.300;0.394;2023-07-29T12:56:56;5.45;;;5.00;;
17310;SDS011;8773;43.300;0.394;2023-07-29T12:59:24;5.03;;;4.72;;
17310;SDS011;8773;43.300;0.394;2023-07-29T13:01:53;4.85;;;4.57;;
17310;SDS011;8773;43.300;0.394;2023-07-29T13:04:20;4.82;;;4.53;;
17310;SDS011;8773;43.300;0.394;2023-07-29T13:06:48;4.95;;;4.68;;
17310;SDS011;8773;43.300;0.394;2023-07-29T13:09:15;5.18;;;4.78;;
17310;SDS011;8773;43.300;0.394;2023-07-29T13:11:43;5.35;;;4.95;;
17310;SDS011;8773;43.300;0.394;2023-07-29T13:14:11;5.15;;;4.75;;
17310;SDS011;8773;43.300;0.394;2023-07-29T13:16:38;5.32;;;5.00;;
17310;SDS011;8773;43.300;0.394;2023-07-29T13:19:08;5.30;;;5.00;;
17310;SDS011;8773;43.300;0.394;2023-07-29T13:21:35;5.70;;;5.40;;
17310;SDS011;8773;43.300;0.394;2023-07-29T13:24:03;5.07;;;4.68;;
17310;SDS011;8773;43.300;0.394;2023-07-29T13:26:31;4.97;;;4.68;;
17310;SDS011;8773;43.300;0.394;2023-07-29T13:28:58;5.45;;;5.05;;
17310;SDS011;8773;43.300;0.394;2023-07-29T13:31:26;5.47;;;5.07;;
17310;SDS011;8773;43.300;0.394;2023-07-29T13:33:53;4.88;;;4.57;;
17310;SDS011;8773;43.300;0.394;2023-07-29T13:36:22;5.38;;;4.93;;
17310;SDS011;8773;43.300;0.394;2023-07-29T13:38:50;5.63;;;5.13;;
17310;SDS011;8773;43.300;0.394;2023-07-29T13:41:17;5.32;;;5.03;;
17310;SDS011;8773;43.300;0.394;2023-07-29T13:43:45;5.70;;;5.30;;
17310;SDS011;8773;43.300;0.394;2023-07-29T13:46:12;5.53;;;5.13;;
17310;SDS011;8773;43.300;0.394;2023-07-29T13:48:40;5.03;;;4.63;;
17310;SDS011;8773;43.300;0.394;2023-07-29T13:51:07;5.13;;;4.72;;
17310;SDS011;8773;43.300;0.394;2023-07-29T13:53:37;5.03;;;4.72;;
17310;SDS011;8773;43.300;0.394;2023-07-29T13:56:04;4.60;;;4.30;;
17310;SDS011;8773;43.300;0.394;2023-07-29T13:58:32;4.88;;;4.57;;
17310;SDS011;8773;43.300;0.394;2023-07-29T14:00:59;4.55;;;4.35;;
17310;SDS011;8773;43.300;0.394;2023-07-29T14:03:27;4.40;;;4.20;;
17310;SDS011;8773;43.300;0.394;2023-07-29T14:05:54;4.20;;;4.00;;
17310;SDS011;8773;43.300;0.394;2023-07-29T14:08:22;5.55;;;5.15;;
17310;SDS011;8773;43.300;0.394;2023-07-29T14:10:51;4.68;;;4.38;;
17310;SDS011;8773;43.300;0.394;2023-07-29T14:13:18;4.43;;;4.22;;
17310;SDS011;8773;43.300;0.394;2023-07-29T14:15:46;4.43;;;4.22;;
17310;SDS011;8773;43.300;0.394;2023-07-29T14:18:14;4.30;;;4.00;;
17310;SDS011;8773;43.300;0.394;2023-07-29T14:20:44;4.47;;;4.07;;
17310;SDS011;8773;43.300;0.394;2023-07-29T14:23:12;4.43;;;4.13;;
17310;SDS011;8773;43.300;0.394;2023-07-29T14:25:40;4.32;;;3.97;;
17310;SDS011;8773;43.300;0.394;2023-07-29T14:28:09;4.13;;;3.83;;
17310;SDS011;8773;43.300;0.394;2023-07-29T14:30:36;4.28;;;3.97;;
17310;SDS011;8773;43.300;0.394;2023-07-29T14:33:04;4.55;;;4.25;;
17310;SDS011;8773;43.300;0.394;2023-07-29T14:35:32;4.18;;;3.97;;
17310;SDS011;8773;43.300;0.394;2023-07-29T14:37:59;4.10;;;3.90;;
17310;SDS011;8773;43.300;0.394;2023-07-29T14:40:27;4.72;;;4.43;;
17310;SDS011;8773;43.300;0.394;2023-07-29T14:42:54;4.05;;;3.75;;
17310;SDS011;8773;43.300;0.394;2023-07-29T14:45:23;4.03;;;3.75;;
17310;SDS011;8773;43.300;0.394;2023-07-29T14:47:52;4.75;;;4.25;;
17310;SDS011;8773;43.300;0.394;2023-07-29T14:50:19;4.15;;;3.95;;
17310;SDS011;8773;43.300;0.394;2023-07-29T14:52:47;4.57;;;4.20;;
17310;SDS011;8773;43.300;0.394;2023-07-29T14:55:14;4.15;;;3.95;;
17310;SDS011;8773;43.300;0.394;2023-07-29T14:57:42;4.03;;;3.83;;
17310;SDS011;8773;43.300;0.394;2023-07-29T15:00:10;4.00;;;3.80;;
17310;SDS011;8773;43.300;0.394;2023-07-29T15:02:40;3.95;;;3.75;;
17310;SDS011;8773;43.300;0.394;2023-07-29T15:05:08;4.43;;;4.20;;
17310;SDS011;8773;43.300;0.394;2023-07-29T15:07:35;5.00;;;4.60;;
17310;SDS011;8773;43.300;0.394;2023-07-29T15:10:03;4.80;;;4.50;;
17310;SDS011;8773;43.300;0.394;2023-07-29T15:12:32;4.07;;;3.88;;
17310;SDS011;8773;43.300;0.394;2023-07-29T15:14:59;3.50;;;3.30;;